Time;durP1;ratioP1;P1;durP2;ratioP2;P2;SDS_P1;SDS_P2;PMS_P1;PMS_P2;Temp;Humidity;BMP_temperature;BMP_pressure;BME280_temperature;BME280_humidity;BME280_pressure;Samples;Min_cycle;Max_cycle;Signal;HPM_P1;HPM_P2
2023/11/17 00:01:38;;;;;;;22.47;12.13;;;;;;;;;;5006920;28;20105;-68
2023/11/17 00:04:06;;;;;;;19.98;11.82;;;;;;;;;;5013497;28;20124;-68
2023/11/17 00:06:33;;;;;;;23.40;10.60;;;;;;;;;;5012623;28;20054;-70
2023/11/17 00:09:00;;;;;;;13.68;8.02;;;;;;;;;;5014489;28;20100;-69
2023/11/17 00:11:26;;;;;;;15.68;6.78;;;;;;;;;;4997112;28;20029;-69
2023/11/17 00:13:53;;;;;;;15.18;8.30;;;;;;;;;;4994361;28;20026;-69
2023/11/17 00:16:19;;;;;;;11.93;7.22;;;;;;;;;;5009667;28;20633;-69
2023/11/17 00:18:45;;;;;;;14.97;7.90;;;;;;;;;;4994501;28;20101;-70
2023/11/17 00:21:13;;;;;;;17.27;7.78;;;;;;;;;;4993222;28;20033;-69
2023/11/17 00:23:39;;;;;;;17.45;8.32;;;;;;;;;;4993228;28;20673;-70
2023/11/17 00:26:08;;;;;;;16.27;8.50;;;;;;;;;;5006623;28;20113;-69
2023/11/17 00:28:40;;;;;;;15.57;9.30;;;;;;;;;;4992576;28;20029;-69
2023/11/17 00:31:06;;;;;;;18.75;8.00;;;;;;;;;;4993007;28;20367;-67
2023/11/17 00:33:32;;;;;;;14.98;8.90;;;;;;;;;;4993146;28;20057;-70
2023/11/17 00:35:58;;;;;;;15.02;8.70;;;;;;;;;;4992983;28;20482;-69
2023/11/17 00:38:23;;;;;;;19.58;10.52;;;;;;;;;;4998725;28;20184;-69
2023/11/17 00:40:52;;;;;;;16.77;9.50;;;;;;;;;;5012595;28;20033;-68
2023/11/17 00:43:18;;;;;;;18.15;9.50;;;;;;;;;;5014213;28;20476;-69
2023/11/17 00:45:44;;;;;;;17.17;9.15;;;;;;;;;;5014283;28;20038;-69
2023/11/17 00:48:10;;;;;;;21.00;10.07;;;;;;;;;;5012952;28;20116;-69
2023/11/17 00:50:37;;;;;;;20.40;9.90;;;;;;;;;;5013297;28;20033;-69
2023/11/17 00:53:05;;;;;;;23.00;10.55;;;;;;;;;;5001426;28;20133;-70
2023/11/17 00:55:31;;;;;;;18.85;9.93;;;;;;;;;;5010642;28;20049;-68
2023/11/17 00:57:58;;;;;;;26.70;12.88;;;;;;;;;;5010087;28;20438;-69
2023/11/17 01:00:24;;;;;;;18.40;10.50;;;;;;;;;;4994808;28;20116;-69
2023/11/17 01:02:50;;;;;;;19.83;9.02;;;;;;;;;;4994251;28;20026;-69
2023/11/17 01:05:18;;;;;;;22.60;10.07;;;;;;;;;;5008689;28;20084;-67
2023/11/17 01:07:44;;;;;;;20.13;10.35;;;;;;;;;;4996507;28;20054;-69
2023/11/17 01:10:11;;;;;;;19.35;10.27;;;;;;;;;;5011752;28;20140;-69
2023/11/17 01:12:38;;;;;;;20.05;10.68;;;;;;;;;;5012235;28;20076;-68
2023/11/17 01:15:07;;;;;;;19.67;9.82;;;;;;;;;;5013831;28;20034;-69
2023/11/17 01:17:33;;;;;;;17.60;9.45;;;;;;;;;;5012176;28;20052;-71
2023/11/17 01:19:59;;;;;;;20.73;10.43;;;;;;;;;;5012994;28;20021;-68
2023/11/17 01:22:24;;;;;;;19.35;9.77;;;;;;;;;;5014123;28;20021;-69
2023/11/17 01:24:51;;;;;;;26.23;10.98;;;;;;;;;;5014382;28;20037;-69
2023/11/17 01:27:17;;;;;;;22.92;10.07;;;;;;;;;;5013228;28;20033;-68
2023/11/17 01:29:44;;;;;;;18.15;11.48;;;;;;;;;;5014114;28;20025;-69
2023/11/17 01:32:10;;;;;;;19.77;10.18;;;;;;;;;;5012055;28;20382;-69
2023/11/17 01:34:36;;;;;;;20.60;11.82;;;;;;;;;;5011386;28;20026;-67
2023/11/17 01:37:01;;;;;;;16.25;10.10;;;;;;;;;;5003280;28;20022;-71
2023/11/17 01:39:27;;;;;;;17.20;9.88;;;;;;;;;;4992449;28;20049;-70
2023/11/17 01:41:53;;;;;;;16.65;9.95;;;;;;;;;;4991432;28;20077;-69
2023/11/17 01:44:21;;;;;;;18.07;10.80;;;;;;;;;;4993171;28;20343;-69
2023/11/17 01:46:46;;;;;;;17.98;8.88;;;;;;;;;;5008023;28;20525;-70
2023/11/17 01:49:13;;;;;;;22.27;10.85;;;;;;;;;;4995007;28;20030;-68
2023/11/17 01:51:39;;;;;;;17.48;9.65;;;;;;;;;;4992857;28;20026;-69
2023/11/17 01:54:05;;;;;;;19.63;9.13;;;;;;;;;;4991727;28;20475;-70
2023/11/17 01:56:33;;;;;;;17.98;10.20;;;;;;;;;;4991327;28;20030;-71
2023/11/17 01:58:59;;;;;;;16.98;8.73;;;;;;;;;;4992516;28;20379;-69
2023/11/17 02:01:27;;;;;;;18.60;8.63;;;;;;;;;;5001323;28;20029;-70
2023/11/17 02:03:56;;;;;;;18.80;8.73;;;;;;;;;;5011521;28;20099;-69
2023/11/17 02:06:37;;;;;;;22.77;9.35;;;;;;;;;;5010829;28;20037;-67
2023/11/17 02:09:29;;;;;;;15.65;8.45;;;;;;;;;;5012170;28;20413;-68
2023/11/17 02:12:23;;;;;;;14.87;8.10;;;;;;;;;;5011905;28;20026;-69
2023/11/17 02:14:55;;;;;;;14.33;7.57;;;;;;;;;;5011409;28;20030;-69
2023/11/17 02:17:28;;;;;;;15.43;7.13;;;;;;;;;;5009938;28;20552;-69
2023/11/17 02:19:59;;;;;;;12.67;7.03;;;;;;;;;;5010728;28;20462;-69
2023/11/17 02:22:30;;;;;;;17.67;8.35;;;;;;;;;;4994180;28;20030;-69
2023/11/17 02:25:15;;;;;;;12.40;7.30;;;;;;;;;;4990764;28;20061;-70
2023/11/17 02:28:34;;;;;;;14.33;6.27;;;;;;;;;;4992113;28;20528;-68
2023/11/17 02:31:12;;;;;;;13.10;6.80;;;;;;;;;;4986741;28;20113;-68
2023/11/17 02:33:41;;;;;;;11.32;6.13;;;;;;;;;;5008195;28;20036;-69
2023/11/17 02:36:17;;;;;;;13.33;7.30;;;;;;;;;;4994543;28;20033;-68
2023/11/17 02:39:21;;;;;;;14.55;6.90;;;;;;;;;;5012359;28;20033;-68
2023/11/17 02:42:34;;;;;;;9.43;5.45;;;;;;;;;;5011309;28;20018;-68
2023/11/17 02:44:40;;;;;;;8.90;5.53;;;;;;;;;;5019578;28;20037;-69
2023/11/17 02:47:09;;;;;;;14.20;5.97;;;;;;;;;;5001701;28;20029;-70
2023/11/17 02:49:46;;;;;;;10.87;5.97;;;;;;;;;;4992121;28;20065;-67
2023/11/17 02:52:52;;;;;;;10.30;5.43;;;;;;;;;;4992177;28;20022;-70
2023/11/17 02:55:21;;;;;;;10.00;5.97;;;;;;;;;;5004540;28;20505;-68
2023/11/17 02:57:47;;;;;;;11.30;5.47;;;;;;;;;;5014203;28;20022;-69
2023/11/17 03:00:14;;;;;;;10.37;6.00;;;;;;;;;;5012569;28;20030;-69
2023/11/17 03:02:40;;;;;;;10.13;6.60;;;;;;;;;;4992895;28;20422;-68
2023/11/17 03:05:13;;;;;;;8.03;5.47;;;;;;;;;;4992622;28;20114;-71
2023/11/17 03:07:39;;;;;;;8.55;5.90;;;;;;;;;;5007073;28;20117;-69
2023/11/17 03:10:06;;;;;;;10.48;5.38;;;;;;;;;;5007708;28;20026;-68
2023/11/17 03:12:32;;;;;;;8.65;5.35;;;;;;;;;;4991141;28;20029;-69
2023/11/17 03:14:58;;;;;;;9.82;5.90;;;;;;;;;;4990992;28;20026;-70
2023/11/17 03:17:25;;;;;;;16.95;6.60;;;;;;;;;;4992153;28;20121;-69
2023/11/17 03:19:52;;;;;;;13.77;6.40;;;;;;;;;;4994542;28;20065;-69
2023/11/17 03:22:17;;;;;;;13.37;6.13;;;;;;;;;;4991946;28;20561;-70
2023/11/17 03:24:43;;;;;;;11.32;6.50;;;;;;;;;;4992862;28;20057;-68
2023/11/17 03:27:11;;;;;;;12.43;6.17;;;;;;;;;;4990945;28;20030;-69
2023/11/17 03:29:37;;;;;;;9.93;7.30;;;;;;;;;;4994280;28;20030;-71
2023/11/17 03:32:07;;;;;;;11.27;6.50;;;;;;;;;;5000679;28;20390;-69
2023/11/17 03:34:35;;;;;;;13.27;6.47;;;;;;;;;;5011674;28;20022;-68
2023/11/17 03:37:03;;;;;;;11.40;7.00;;;;;;;;;;5011381;28;20030;-69
2023/11/17 03:39:44;;;;;;;12.40;6.23;;;;;;;;;;5011759;28;20026;-70
2023/11/17 03:42:12;;;;;;;12.00;7.23;;;;;;;;;;5010586;28;20117;-68
2023/11/17 03:44:41;;;;;;;12.17;6.47;;;;;;;;;;4998043;28;20026;-69
2023/11/17 03:47:08;;;;;;;10.47;6.27;;;;;;;;;;4990958;28;20160;-70
2023/11/17 03:49:34;;;;;;;10.97;6.10;;;;;;;;;;4990802;28;20054;-69
2023/11/17 03:52:02;;;;;;;10.83;6.53;;;;;;;;;;4991753;28;20479;-69
2023/11/17 03:54:28;;;;;;;12.00;6.53;;;;;;;;;;4991865;28;20026;-69
2023/11/17 03:56:58;;;;;;;10.93;6.43;;;;;;;;;;4992886;28;20033;-70
2023/11/17 03:59:30;;;;;;;9.33;6.50;;;;;;;;;;5010925;28;20033;-69
2023/11/17 04:01:57;;;;;;;8.88;5.97;;;;;;;;;;5001796;28;20113;-70
2023/11/17 04:04:25;;;;;;;9.20;5.47;;;;;;;;;;4998661;28;20022;-69
2023/11/17 04:06:54;;;;;;;10.40;5.27;;;;;;;;;;4994669;28;20514;-69
2023/11/17 04:09:27;;;;;;;6.73;4.87;;;;;;;;;;5010130;28;20092;-72
2023/11/17 04:11:54;;;;;;;12.33;5.03;;;;;;;;;;4996591;28;20018;-70
2023/11/17 04:14:23;;;;;;;8.83;5.13;;;;;;;;;;4996420;28;20129;-70
2023/11/17 04:16:50;;;;;;;9.30;5.40;;;;;;;;;;4994754;28;20022;-69
2023/11/17 04:19:19;;;;;;;9.13;4.67;;;;;;;;;;4996241;28;20034;-69
2023/11/17 04:21:46;;;;;;;10.73;5.33;;;;;;;;;;4994999;28;20022;-68
2023/11/17 04:24:13;;;;;;;9.47;4.80;;;;;;;;;;4994753;28;20104;-68
2023/11/17 04:26:42;;;;;;;6.73;4.20;;;;;;;;;;5000757;28;20029;-68
2023/11/17 04:29:08;;;;;;;6.50;4.27;;;;;;;;;;5014974;28;20040;-72
2023/11/17 04:31:35;;;;;;;5.25;3.83;;;;;;;;;;5013351;28;20385;-69
2023/11/17 04:34:00;;;;;;;4.53;3.80;;;;;;;;;;5014818;28;20109;-69
2023/11/17 04:36:26;;;;;;;5.40;4.17;;;;;;;;;;5014599;28;20069;-69
2023/11/17 04:38:52;;;;;;;4.73;3.50;;;;;;;;;;5012781;28;20528;-69
2023/11/17 04:41:19;;;;;;;5.70;3.47;;;;;;;;;;5012380;28;20024;-70
2023/11/17 04:43:46;;;;;;;5.70;3.80;;;;;;;;;;5013952;28;20243;-69
2023/11/17 04:46:19;;;;;;;4.80;3.90;;;;;;;;;;5013426;28;20497;-72
2023/11/17 04:48:45;;;;;;;8.27;4.77;;;;;;;;;;5012098;28;20485;-70
2023/11/17 04:51:11;;;;;;;9.40;5.43;;;;;;;;;;5011745;28;20052;-71
2023/11/17 04:53:38;;;;;;;8.47;5.67;;;;;;;;;;5011613;28;20027;-69
2023/11/17 04:56:05;;;;;;;12.43;6.63;;;;;;;;;;5011846;28;20029;-70
2023/11/17 04:58:34;;;;;;;8.07;5.87;;;;;;;;;;5013152;28;20044;-69
2023/11/17 05:00:59;;;;;;;11.17;7.13;;;;;;;;;;5013312;28;20129;-70
2023/11/17 05:03:25;;;;;;;12.40;6.23;;;;;;;;;;5011955;28;20369;-68
2023/11/17 05:05:52;;;;;;;11.17;6.87;;;;;;;;;;5011793;28;20030;-68
2023/11/17 05:08:18;;;;;;;14.63;6.90;;;;;;;;;;5004622;28;20056;-69
2023/11/17 05:10:45;;;;;;;13.70;6.47;;;;;;;;;;4993670;28;20076;-68
2023/11/17 05:13:13;;;;;;;12.00;5.70;;;;;;;;;;4993331;28;20550;-71
2023/11/17 05:15:46;;;;;;;12.13;6.77;;;;;;;;;;4992258;28;20053;-69
2023/11/17 05:18:11;;;;;;;13.70;6.93;;;;;;;;;;5007930;28;20038;-68
2023/11/17 05:20:38;;;;;;;9.67;6.10;;;;;;;;;;4993391;28;20033;-69
2023/11/17 05:23:04;;;;;;;8.27;5.27;;;;;;;;;;5002792;28;20029;-68
2023/11/17 05:25:29;;;;;;;9.80;5.50;;;;;;;;;;5011848;28;20030;-69
2023/11/17 05:27:55;;;;;;;11.87;5.57;;;;;;;;;;5012579;28;20476;-70
2023/11/17 05:30:21;;;;;;;5.70;4.47;;;;;;;;;;5011460;28;20108;-69
2023/11/17 05:32:48;;;;;;;10.57;5.00;;;;;;;;;;5012374;28;20470;-73
2023/11/17 05:35:14;;;;;;;6.73;4.40;;;;;;;;;;5012416;28;20029;-69
2023/11/17 05:37:42;;;;;;;6.97;4.53;;;;;;;;;;4997097;28;20026;-69
2023/11/17 05:40:08;;;;;;;10.30;4.80;;;;;;;;;;4991643;28;20038;-70
2023/11/17 05:42:34;;;;;;;7.50;4.40;;;;;;;;;;5007863;28;20438;-68
2023/11/17 05:45:01;;;;;;;6.87;4.30;;;;;;;;;;4991201;28;20169;-69
2023/11/17 05:47:27;;;;;;;6.23;4.17;;;;;;;;;;5008150;28;20097;-68
2023/11/17 05:49:55;;;;;;;8.03;4.50;;;;;;;;;;4991540;28;20057;-68
2023/11/17 05:52:21;;;;;;;9.73;4.77;;;;;;;;;;5007657;28;20093;-68
2023/11/17 05:54:47;;;;;;;8.67;4.70;;;;;;;;;;4991388;28;20034;-69
2023/11/17 05:57:14;;;;;;;7.67;5.07;;;;;;;;;;4992683;28;20442;-69
2023/11/17 05:59:42;;;;;;;5.93;4.57;;;;;;;;;;5007451;28;20096;-68
2023/11/17 06:02:08;;;;;;;11.17;4.60;;;;;;;;;;4992623;28;20049;-69
2023/11/17 06:04:34;;;;;;;9.43;4.87;;;;;;;;;;4991661;28;20038;-69
2023/11/17 06:07:04;;;;;;;8.20;5.07;;;;;;;;;;4992884;28;20073;-69
2023/11/17 06:09:30;;;;;;;7.20;3.87;;;;;;;;;;4992100;28;20742;-69
2023/11/17 06:11:56;;;;;;;6.57;4.10;;;;;;;;;;4992190;28;20037;-70
2023/11/17 06:14:23;;;;;;;7.80;4.23;;;;;;;;;;4991316;28;20445;-69
2023/11/17 06:16:53;;;;;;;9.63;4.67;;;;;;;;;;5007622;28;20056;-68
2023/11/17 06:19:19;;;;;;;6.27;3.47;;;;;;;;;;4991587;28;20129;-69
2023/11/17 06:21:44;;;;;;;5.30;3.47;;;;;;;;;;4990989;28;20113;-68
2023/11/17 06:24:10;;;;;;;7.67;3.53;;;;;;;;;;4990208;28;20466;-69
2023/11/17 06:26:36;;;;;;;7.03;3.10;;;;;;;;;;4992363;28;20475;-70
2023/11/17 06:29:02;;;;;;;4.70;3.30;;;;;;;;;;4990592;28;20057;-68
2023/11/17 06:31:28;;;;;;;3.23;2.30;;;;;;;;;;4990558;28;20030;-70
2023/11/17 06:33:54;;;;;;;4.00;2.80;;;;;;;;;;4998669;28;20040;-69
2023/11/17 06:36:21;;;;;;;2.40;1.97;;;;;;;;;;5012004;28;20148;-68
2023/11/17 06:38:47;;;;;;;4.07;1.83;;;;;;;;;;5010563;28;20029;-70
2023/11/17 06:41:14;;;;;;;3.10;2.37;;;;;;;;;;5010173;28;20084;-68
2023/11/17 06:43:40;;;;;;;3.60;2.10;;;;;;;;;;5010500;28;20532;-70
2023/11/17 06:46:07;;;;;;;2.30;2.10;;;;;;;;;;5012211;28;20034;-69
2023/11/17 06:48:39;;;;;;;3.57;1.83;;;;;;;;;;5002225;28;20038;-70
2023/11/17 06:51:05;;;;;;;3.13;1.80;;;;;;;;;;5025629;28;20437;-69
2023/11/17 06:53:32;;;;;;;2.10;1.63;;;;;;;;;;5011374;28;20664;-69
2023/11/17 06:56:02;;;;;;;3.87;2.33;;;;;;;;;;5012816;28;20100;-69
2023/11/17 06:58:31;;;;;;;2.63;1.80;;;;;;;;;;5012604;28;20048;-69
2023/11/17 07:00:59;;;;;;;2.27;1.80;;;;;;;;;;5006962;28;20418;-68
2023/11/17 07:03:31;;;;;;;1.83;1.73;;;;;;;;;;4990779;28;20023;-71
2023/11/17 07:05:57;;;;;;;4.17;2.10;;;;;;;;;;4988975;28;20121;-70
2023/11/17 07:08:22;;;;;;;2.33;2.10;;;;;;;;;;4988832;28;20133;-71
2023/11/17 07:10:48;;;;;;;4.00;2.30;;;;;;;;;;4990664;28;20045;-70
2023/11/17 07:13:14;;;;;;;3.53;2.13;;;;;;;;;;4989117;28;20058;-72
2023/11/17 07:15:40;;;;;;;5.27;2.20;;;;;;;;;;5005385;28;20033;-70
2023/11/17 07:18:06;;;;;;;2.47;2.00;;;;;;;;;;4990079;28;20041;-70
2023/11/17 07:20:31;;;;;;;3.53;2.20;;;;;;;;;;4988345;28;20034;-71
2023/11/17 07:22:57;;;;;;;4.20;2.23;;;;;;;;;;5004817;28;20053;-70
2023/11/17 07:25:23;;;;;;;3.70;2.50;;;;;;;;;;4988855;28;20371;-71
2023/11/17 07:27:49;;;;;;;3.73;3.00;;;;;;;;;;5005483;28;20030;-70
2023/11/17 07:30:14;;;;;;;5.30;2.43;;;;;;;;;;4991978;28;20142;-70
2023/11/17 07:32:41;;;;;;;9.23;3.17;;;;;;;;;;5008688;28;20033;-68
2023/11/17 07:35:07;;;;;;;5.47;2.80;;;;;;;;;;5008250;28;20176;-70
2023/11/17 07:37:34;;;;;;;7.17;2.87;;;;;;;;;;5012934;28;20026;-70
2023/11/17 07:40:01;;;;;;;3.10;2.50;;;;;;;;;;5013739;28;20127;-69
2023/11/17 07:42:27;;;;;;;3.33;2.90;;;;;;;;;;5013536;28;20037;-69
2023/11/17 07:44:52;;;;;;;5.57;2.43;;;;;;;;;;5006363;28;20592;-71
2023/11/17 07:47:23;;;;;;;5.73;4.00;;;;;;;;;;4993635;28;20096;-69
2023/11/17 07:49:49;;;;;;;5.67;4.03;;;;;;;;;;4993670;28;20126;-69
2023/11/17 07:52:14;;;;;;;5.97;3.50;;;;;;;;;;4992041;28;20363;-71
2023/11/17 07:54:42;;;;;;;5.57;3.60;;;;;;;;;;5008763;28;20037;-70
2023/11/17 07:57:08;;;;;;;7.43;2.90;;;;;;;;;;4993780;28;20553;-70
2023/11/17 07:59:34;;;;;;;4.07;2.60;;;;;;;;;;5002433;28;20037;-69
2023/11/17 08:02:00;;;;;;;7.07;3.43;;;;;;;;;;5013498;28;20018;-71
2023/11/17 08:04:26;;;;;;;4.03;2.33;;;;;;;;;;5013478;28;20056;-70
2023/11/17 08:06:53;;;;;;;3.23;2.47;;;;;;;;;;5014772;28;20054;-69
2023/11/17 08:09:19;;;;;;;6.20;3.40;;;;;;;;;;5014209;28;20026;-70
2023/11/17 08:11:48;;;;;;;2.93;2.63;;;;;;;;;;5012526;28;20033;-70
2023/11/17 08:14:14;;;;;;;3.07;2.77;;;;;;;;;;5013097;28;20036;-72
2023/11/17 08:16:40;;;;;;;5.20;2.90;;;;;;;;;;5011789;28;20026;-70
2023/11/17 08:19:08;;;;;;;5.07;3.30;;;;;;;;;;5012697;28;20029;-70
2023/11/17 08:21:34;;;;;;;8.50;3.97;;;;;;;;;;5012873;28;20029;-72
2023/11/17 08:23:59;;;;;;;6.47;3.80;;;;;;;;;;5012657;28;20022;-71
2023/11/17 08:26:30;;;;;;;5.73;3.80;;;;;;;;;;5012698;28;20461;-70
2023/11/17 08:28:56;;;;;;;4.30;3.23;;;;;;;;;;4994275;28;20038;-70
2023/11/17 08:31:22;;;;;;;5.00;3.37;;;;;;;;;;4991306;28;20276;-70
2023/11/17 08:33:47;;;;;;;5.77;4.07;;;;;;;;;;4991606;28;20037;-70
2023/11/17 08:36:13;;;;;;;5.70;4.20;;;;;;;;;;5007774;28;20537;-68
2023/11/17 08:38:42;;;;;;;7.03;3.80;;;;;;;;;;4993112;28;20547;-70
2023/11/17 08:41:12;;;;;;;6.07;3.97;;;;;;;;;;5008705;28;20041;-68
2023/11/17 08:43:38;;;;;;;3.50;3.17;;;;;;;;;;5027342;28;20827;-70
2023/11/17 08:46:07;;;;;;;5.53;4.20;;;;;;;;;;5012274;28;20073;-68
2023/11/17 08:48:36;;;;;;;5.80;4.40;;;;;;;;;;5011998;28;20740;-69
2023/11/17 08:51:06;;;;;;;6.33;3.77;;;;;;;;;;5011906;28;20478;-71
2023/11/17 08:53:32;;;;;;;6.83;4.97;;;;;;;;;;5011917;28;20486;-71
2023/11/17 08:56:00;;;;;;;10.87;4.97;;;;;;;;;;5003250;28;20037;-70
2023/11/17 08:58:26;;;;;;;6.63;4.10;;;;;;;;;;4991126;28;20034;-70
2023/11/17 09:00:52;;;;;;;6.27;4.10;;;;;;;;;;4996383;28;20028;-70
2023/11/17 09:03:17;;;;;;;5.50;4.43;;;;;;;;;;5010546;28;20641;-70
2023/11/17 09:05:44;;;;;;;6.40;4.43;;;;;;;;;;5009941;28;20040;-69
2023/11/17 09:08:10;;;;;;;5.93;4.40;;;;;;;;;;5011151;28;20058;-70
2023/11/17 09:10:37;;;;;;;6.97;4.10;;;;;;;;;;5009579;28;20145;-71
2023/11/17 09:13:04;;;;;;;8.80;5.23;;;;;;;;;;5009839;28;20092;-71
2023/11/17 09:15:33;;;;;;;7.30;4.97;;;;;;;;;;5011417;28;20030;-70
2023/11/17 09:17:59;;;;;;;8.33;4.70;;;;;;;;;;5011884;28;20026;-70
2023/11/17 09:20:27;;;;;;;6.93;4.60;;;;;;;;;;5011486;28;20088;-70
2023/11/17 09:22:54;;;;;;;7.97;5.07;;;;;;;;;;5010238;28;20030;-72
2023/11/17 09:25:23;;;;;;;7.77;5.13;;;;;;;;;;4997320;28;20034;-69
2023/11/17 09:27:54;;;;;;;8.97;5.00;;;;;;;;;;4990577;28;20056;-68
2023/11/17 09:30:21;;;;;;;8.13;5.10;;;;;;;;;;4991931;28;20130;-70
2023/11/17 09:32:55;;;;;;;4.77;4.23;;;;;;;;;;4991924;28;20041;-70
2023/11/17 09:35:25;;;;;;;4.83;3.70;;;;;;;;;;4990114;28;20100;-70
2023/11/17 09:37:53;;;;;;;9.20;4.63;;;;;;;;;;4994270;28;20042;-71
2023/11/17 09:40:23;;;;;;;8.40;4.30;;;;;;;;;;5011095;28;20100;-71
2023/11/17 09:42:57;;;;;;;6.53;4.50;;;;;;;;;;5009737;28;20381;-70
2023/11/17 09:45:30;;;;;;;10.23;5.37;;;;;;;;;;5010105;28;20036;-71
2023/11/17 09:47:57;;;;;;;11.63;5.57;;;;;;;;;;5009924;28;20116;-71
2023/11/17 09:50:28;;;;;;;7.33;4.70;;;;;;;;;;5010960;28;20100;-70
2023/11/17 09:52:54;;;;;;;9.40;4.50;;;;;;;;;;5001763;28;20031;-70
2023/11/17 09:55:23;;;;;;;5.30;3.83;;;;;;;;;;4991340;28;20093;-68
2023/11/17 09:57:54;;;;;;;5.63;3.97;;;;;;;;;;4989940;28;20109;-70
2023/11/17 10:00:22;;;;;;;6.70;3.88;;;;;;;;;;4991612;28;20061;-70
2023/11/17 10:02:54;;;;;;;6.30;3.23;;;;;;;;;;5010950;28;20092;-71
2023/11/17 10:05:24;;;;;;;6.65;3.22;;;;;;;;;;5009811;28;20112;-70
2023/11/17 10:07:54;;;;;;;3.30;2.87;;;;;;;;;;4996242;28;20046;-70
2023/11/17 10:10:21;;;;;;;4.77;2.73;;;;;;;;;;4991482;28;20045;-70
2023/11/17 10:12:48;;;;;;;3.83;3.00;;;;;;;;;;4991683;28;20026;-71
2023/11/17 10:15:23;;;;;;;4.20;3.20;;;;;;;;;;4989599;28;20101;-70
2023/11/17 10:17:51;;;;;;;5.87;3.17;;;;;;;;;;4989298;28;20378;-71
2023/11/17 10:20:19;;;;;;;3.53;3.00;;;;;;;;;;4990731;28;20050;-69
2023/11/17 10:22:49;;;;;;;5.43;3.00;;;;;;;;;;4989546;28;20510;-69
2023/11/17 10:25:20;;;;;;;4.67;3.00;;;;;;;;;;4990708;28;20041;-70
2023/11/17 10:27:49;;;;;;;4.17;3.23;;;;;;;;;;4990810;28;20058;-71
2023/11/17 10:30:17;;;;;;;5.43;3.30;;;;;;;;;;4989089;28;20062;-69
2023/11/17 10:32:53;;;;;;;4.87;3.10;;;;;;;;;;4990663;28;20189;-71
2023/11/17 10:35:25;;;;;;;5.20;3.60;;;;;;;;;;4997589;28;20026;-69
2023/11/17 10:37:55;;;;;;;4.93;3.00;;;;;;;;;;5022693;28;20038;-69
2023/11/17 10:40:24;;;;;;;4.80;3.10;;;;;;;;;;5009691;28;20099;-70
2023/11/17 10:43:07;;;;;;;7.30;3.33;;;;;;;;;;5008550;28;20075;-71
2023/11/17 10:45:41;;;;;;;4.80;3.37;;;;;;;;;;5010442;28;20021;-70
2023/11/17 10:48:08;;;;;;;6.37;3.13;;;;;;;;;;5008559;28;20030;-70
2023/11/17 10:50:35;;;;;;;4.67;2.90;;;;;;;;;;4994700;28;20084;-71
2023/11/17 10:53:20;;;;;;;5.27;3.00;;;;;;;;;;4990494;28;20085;-70
2023/11/17 10:55:48;;;;;;;5.40;2.93;;;;;;;;;;4989332;28;20529;-70
2023/11/17 10:58:15;;;;;;;3.60;2.80;;;;;;;;;;4989174;28;20066;-70
2023/11/17 11:00:45;;;;;;;3.13;2.40;;;;;;;;;;4993627;28;20025;-72
2023/11/17 11:03:13;;;;;;;4.27;2.50;;;;;;;;;;5009129;28;20483;-69
2023/11/17 11:05:44;;;;;;;2.13;1.90;;;;;;;;;;5009916;28;20132;-71
2023/11/17 11:08:18;;;;;;;3.13;2.10;;;;;;;;;;5009445;28;20398;-71
2023/11/17 11:10:53;;;;;;;4.07;2.00;;;;;;;;;;5026371;28;20069;-70
2023/11/17 11:13:29;;;;;;;3.53;2.15;;;;;;;;;;5012106;28;20421;-69
2023/11/17 11:16:05;;;;;;;1.70;1.60;;;;;;;;;;5004832;28;20061;-70
2023/11/17 11:18:54;;;;;;;2.20;1.70;;;;;;;;;;4993012;28;20030;-69
2023/11/17 11:21:21;;;;;;;3.05;2.08;;;;;;;;;;4993243;28;20022;-70
2023/11/17 11:23:48;;;;;;;2.55;1.67;;;;;;;;;;4993122;28;20030;-69
2023/11/17 11:26:16;;;;;;;1.73;1.45;;;;;;;;;;4994620;28;20096;-70
2023/11/17 11:28:42;;;;;;;3.72;2.05;;;;;;;;;;5006221;28;20053;-70
2023/11/17 11:31:09;;;;;;;7.53;2.28;;;;;;;;;;5008415;28;20678;-72
2023/11/17 11:33:36;;;;;;;4.35;2.15;;;;;;;;;;5012432;28;20044;-70
2023/11/17 11:36:01;;;;;;;3.53;1.60;;;;;;;;;;5014223;28;20041;-71
2023/11/17 11:38:28;;;;;;;1.70;1.58;;;;;;;;;;5012553;28;20029;-70
2023/11/17 11:40:55;;;;;;;2.25;1.65;;;;;;;;;;5013192;28;20098;-69
2023/11/17 11:43:22;;;;;;;2.60;1.80;;;;;;;;;;5000615;28;20026;-70
2023/11/17 11:45:49;;;;;;;3.25;2.03;;;;;;;;;;5014772;28;20026;-69
2023/11/17 11:48:20;;;;;;;2.20;1.80;;;;;;;;;;5013635;28;20540;-70
2023/11/17 11:50:48;;;;;;;3.15;1.85;;;;;;;;;;5015896;28;20026;-69
2023/11/17 11:53:33;;;;;;;4.05;1.98;;;;;;;;;;5028864;28;20109;-70
2023/11/17 11:56:14;;;;;;;1.63;1.52;;;;;;;;;;5011598;28;20033;-69
2023/11/17 11:58:47;;;;;;;1.83;1.67;;;;;;;;;;4994505;28;20366;-71
2023/11/17 12:01:16;;;;;;;2.92;1.98;;;;;;;;;;5000335;28;20108;-70
2023/11/17 12:04:10;;;;;;;2.78;1.73;;;;;;;;;;4991186;28;20157;-70
2023/11/17 12:06:37;;;;;;;2.90;2.10;;;;;;;;;;5010830;28;20124;-69
2023/11/17 12:09:19;;;;;;;2.88;1.77;;;;;;;;;;5021499;28;20022;-70
2023/11/17 12:11:47;;;;;;;3.20;2.00;;;;;;;;;;4977423;28;20125;-70
2023/11/17 12:14:15;;;;;;;4.57;2.13;;;;;;;;;;5006986;28;20049;-70
2023/11/17 12:16:54;;;;;;;2.53;1.70;;;;;;;;;;5022406;28;20552;-70
2023/11/17 12:19:22;;;;;;;3.25;1.60;;;;;;;;;;5007919;28;20105;-69
2023/11/17 12:21:50;;;;;;;2.65;1.77;;;;;;;;;;4999174;28;20144;-70
2023/11/17 12:24:23;;;;;;;3.33;1.95;;;;;;;;;;5015308;28;20026;-69
2023/11/17 12:26:53;;;;;;;2.90;1.48;;;;;;;;;;4993779;28;20109;-69
2023/11/17 12:29:22;;;;;;;2.90;1.70;;;;;;;;;;5007435;28;20037;-72
2023/11/17 12:31:50;;;;;;;4.07;1.90;;;;;;;;;;4991614;28;20122;-70
2023/11/17 12:34:15;;;;;;;4.93;1.92;;;;;;;;;;4992246;28;20038;-69
2023/11/17 12:36:41;;;;;;;2.42;1.80;;;;;;;;;;4993176;28;20030;-69
2023/11/17 12:39:08;;;;;;;1.98;1.60;;;;;;;;;;4992024;28;20445;-70
2023/11/17 12:41:35;;;;;;;4.15;2.00;;;;;;;;;;4991314;28;20049;-71
2023/11/17 12:44:01;;;;;;;2.80;1.73;;;;;;;;;;4993095;28;20042;-72
2023/11/17 12:46:30;;;;;;;4.60;1.67;;;;;;;;;;4992922;28;20034;-71
2023/11/17 12:48:57;;;;;;;3.40;1.50;;;;;;;;;;4992802;28;20041;-70
2023/11/17 12:51:24;;;;;;;1.80;1.70;;;;;;;;;;4974523;28;20035;-71
2023/11/17 12:53:51;;;;;;;2.15;1.70;;;;;;;;;;4999030;28;20470;-69
2023/11/17 12:56:17;;;;;;;1.73;1.63;;;;;;;;;;5012197;28;20026;-70
2023/11/17 12:58:43;;;;;;;3.60;1.67;;;;;;;;;;5012294;28;20105;-70
2023/11/17 13:01:16;;;;;;;2.72;1.40;;;;;;;;;;5010633;28;20525;-71
2023/11/17 13:03:48;;;;;;;1.60;1.48;;;;;;;;;;5010527;28;20092;-71
2023/11/17 13:06:18;;;;;;;1.83;1.50;;;;;;;;;;5009928;28;20346;-69
2023/11/17 13:08:44;;;;;;;1.88;1.30;;;;;;;;;;4994371;28;20057;-69
2023/11/17 13:11:14;;;;;;;2.78;1.63;;;;;;;;;;4992218;28;20458;-69
2023/11/17 13:13:43;;;;;;;2.60;2.40;;;;;;;;;;4990205;28;20049;-70
2023/11/17 13:16:13;;;;;;;18.15;7.70;;;;;;;;;;4990168;28;20089;-69
2023/11/17 13:18:43;;;;;;;17.33;8.45;;;;;;;;;;4990232;28;20049;-70
2023/11/17 13:21:17;;;;;;;2.90;2.42;;;;;;;;;;4990122;28;20053;-71
2023/11/17 13:23:44;;;;;;;4.15;1.67;;;;;;;;;;4990395;28;20034;-70
2023/11/17 13:26:11;;;;;;;2.45;1.10;;;;;;;;;;4990639;28;20540;-71
2023/11/17 13:28:41;;;;;;;1.20;1.10;;;;;;;;;;4990392;28;20065;-69
2023/11/17 13:31:22;;;;;;;2.05;1.50;;;;;;;;;;4992220;28;20023;-72
2023/11/17 13:33:56;;;;;;;2.03;1.83;;;;;;;;;;4990325;28;20037;-69
2023/11/17 13:36:30;;;;;;;2.97;1.20;;;;;;;;;;5009208;28;20030;-71
2023/11/17 13:41:39;;;;;;;2.63;1.40;;;;;;;;;;5011347;28;20104;-70
2023/11/17 13:44:06;;;;;;;1.52;1.30;;;;;;;;;;5011428;28;20060;-70
2023/11/17 13:46:35;;;;;;;5.13;1.93;;;;;;;;;;5010253;28;20030;-70
2023/11/17 13:49:06;;;;;;;7.10;2.50;;;;;;;;;;5010598;28;20527;-71
2023/11/17 13:51:37;;;;;;;2.53;1.80;;;;;;;;;;4977323;28;20038;-70
2023/11/17 13:54:03;;;;;;;4.73;2.20;;;;;;;;;;4991767;28;20108;-72
2023/11/17 13:56:29;;;;;;;4.17;1.40;;;;;;;;;;4991610;28;20046;-68
2023/11/17 13:58:56;;;;;;;2.27;1.87;;;;;;;;;;4990348;28;20037;-69
2023/11/17 14:01:26;;;;;;;1.90;1.80;;;;;;;;;;4999462;28;20030;-69
2023/11/17 14:03:53;;;;;;;1.70;1.60;;;;;;;;;;5011449;28;20641;-70
2023/11/17 14:06:18;;;;;;;3.40;1.67;;;;;;;;;;4991550;28;20022;-68
2023/11/17 14:08:44;;;;;;;3.07;2.10;;;;;;;;;;4990018;28;20093;-71
2023/11/17 14:11:10;;;;;;;1.63;1.53;;;;;;;;;;4991290;28;20033;-71
2023/11/17 14:13:37;;;;;;;1.97;1.50;;;;;;;;;;4989958;28;20102;-71
2023/11/17 14:16:08;;;;;;;5.77;1.80;;;;;;;;;;4991642;28;20054;-71
2023/11/17 14:18:41;;;;;;;2.30;1.70;;;;;;;;;;5012693;28;20548;-69
2023/11/17 14:21:11;;;;;;;2.60;1.90;;;;;;;;;;5010928;28;20038;-69
2023/11/17 14:23:38;;;;;;;1.67;1.50;;;;;;;;;;5011671;28;20543;-71
2023/11/17 14:26:08;;;;;;;2.47;1.87;;;;;;;;;;5009139;28;20034;-71
2023/11/17 14:28:36;;;;;;;2.63;1.60;;;;;;;;;;5009002;28;20033;-69
2023/11/17 14:31:06;;;;;;;1.67;1.57;;;;;;;;;;5010604;28;20080;-70
2023/11/17 14:33:32;;;;;;;2.03;1.80;;;;;;;;;;5008616;28;20501;-70
2023/11/17 14:35:58;;;;;;;1.70;1.50;;;;;;;;;;5010210;28;20026;-69
2023/11/17 14:38:27;;;;;;;1.60;1.50;;;;;;;;;;5025687;28;20041;-70
2023/11/17 14:40:53;;;;;;;1.50;1.40;;;;;;;;;;5010791;28;20032;-70
2023/11/17 14:43:20;;;;;;;2.07;1.67;;;;;;;;;;5010155;28;20030;-70
2023/11/17 14:45:46;;;;;;;2.17;1.50;;;;;;;;;;5010077;28;20034;-69
2023/11/17 14:48:11;;;;;;;2.90;1.90;;;;;;;;;;5009697;28;20462;-69
2023/11/17 14:50:37;;;;;;;2.97;1.57;;;;;;;;;;5008624;28;20033;-70